sensor_id;sensor_type;location;lat;lon;timestamp;temperature;humidity
17154;DHT22;8692;52.164;7.558;2024-02-15T00:00:03;11.90;99.90
17154;DHT22;8692;52.164;7.558;2024-02-15T00:02:35;11.80;99.90
17154;DHT22;8692;52.164;7.558;2024-02-15T00:05:05;11.90;99.90
17154;DHT22;8692;52.164;7.558;2024-02-15T00:07:34;11.80;99.90
17154;DHT22;8692;52.164;7.558;2024-02-15T00:10:03;11.80;99.90
17154;DHT22;8692;52.164;7.558;2024-02-15T00:12:31;11.80;99.90
17154;DHT22;8692;52.164;7.558;2024-02-15T00:14:59;11.80;99.90
17154;DHT22;8692;52.164;7.558;2024-02-15T00:17:28;11.80;99.90
17154;DHT22;8692;52.164;7.558;2024-02-15T00:19:57;11.80;99.90
17154;DHT22;8692;52.164;7.558;2024-02-15T00:22:28;11.90;99.90
17154;DHT22;8692;52.164;7.558;2024-02-15T00:24:56;11.80;99.90
17154;DHT22;8692;52.164;7.558;2024-02-15T00:27:25;11.90;99.90
17154;DHT22;8692;52.164;7.558;2024-02-15T00:29:53;11.80;99.90
17154;DHT22;8692;52.164;7.558;2024-02-15T00:32:21;11.90;99.90
17154;DHT22;8692;52.164;7.558;2024-02-15T00:34:49;11.90;99.90
17154;DHT22;8692;52.164;7.558;2024-02-15T00:37:18;11.80;99.90
17154;DHT22;8692;52.164;7.558;2024-02-15T00:39:47;11.80;99.90
17154;DHT22;8692;52.164;7.558;2024-02-15T00:42:15;11.80;99.90
17154;DHT22;8692;52.164;7.558;2024-02-15T00:44:43;11.90;99.90
17154;DHT22;8692;52.164;7.558;2024-02-15T00:47:12;11.80;99.90
17154;DHT22;8692;52.164;7.558;2024-02-15T00:49:40;11.80;99.90
17154;DHT22;8692;52.164;7.558;2024-02-15T00:52:08;11.80;99.90
17154;DHT22;8692;52.164;7.558;2024-02-15T00:54:36;11.80;99.90
17154;DHT22;8692;52.164;7.558;2024-02-15T00:57:05;11.80;99.90
17154;DHT22;8692;52.164;7.558;2024-02-15T00:59:34;11.80;99.90
17154;DHT22;8692;52.164;7.558;2024-02-15T01:02:03;11.80;99.90
17154;DHT22;8692;52.164;7.558;2024-02-15T01:04:32;11.80;99.90
17154;DHT22;8692;52.164;7.558;2024-02-15T01:07:00;11.80;99.90
17154;DHT22;8692;52.164;7.558;2024-02-15T01:09:29;11.80;99.90
17154;DHT22;8692;52.164;7.558;2024-02-15T01:11:57;11.80;99.90
17154;DHT22;8692;52.164;7.558;2024-02-15T01:14:26;11.80;99.90
17154;DHT22;8692;52.164;7.558;2024-02-15T01:16:57;11.80;99.90
17154;DHT22;8692;52.164;7.558;2024-02-15T01:19:25;11.80;99.90
17154;DHT22;8692;52.164;7.558;2024-02-15T01:21:53;11.80;99.90
17154;DHT22;8692;52.164;7.558;2024-02-15T01:24:21;11.80;99.90
17154;DHT22;8692;52.164;7.558;2024-02-15T01:26:52;11.80;99.90
17154;DHT22;8692;52.164;7.558;2024-02-15T01:29:21;11.80;99.90
17154;DHT22;8692;52.164;7.558;2024-02-15T01:31:50;11.80;99.90
17154;DHT22;8692;52.164;7.558;2024-02-15T01:34:18;11.80;99.90
17154;DHT22;8692;52.164;7.558;2024-02-15T01:36:48;11.80;99.90
17154;DHT22;8692;52.164;7.558;2024-02-15T01:39:17;11.80;99.90
17154;DHT22;8692;52.164;7.558;2024-02-15T01:41:48;11.80;99.90
17154;DHT22;8692;52.164;7.558;2024-02-15T01:44:18;11.80;99.90
17154;DHT22;8692;52.164;7.558;2024-02-15T01:46:48;11.80;99.90
17154;DHT22;8692;52.164;7.558;2024-02-15T01:49:21;11.80;99.90
17154;DHT22;8692;52.164;7.558;2024-02-15T01:51:51;11.80;99.90
17154;DHT22;8692;52.164;7.558;2024-02-15T01:54:21;11.80;99.90
17154;DHT22;8692;52.164;7.558;2024-02-15T01:56:49;11.70;99.90
17154;DHT22;8692;52.164;7.558;2024-02-15T01:59:18;11.70;99.90
17154;DHT22;8692;52.164;7.558;2024-02-15T02:01:47;11.80;99.90
17154;DHT22;8692;52.164;7.558;2024-02-15T02:04:15;11.80;99.90
17154;DHT22;8692;52.164;7.558;2024-02-15T02:06:45;11.70;99.90
17154;DHT22;8692;52.164;7.558;2024-02-15T02:09:13;11.70;99.90
17154;DHT22;8692;52.164;7.558;2024-02-15T02:11:42;11.70;99.90
17154;DHT22;8692;52.164;7.558;2024-02-15T02:14:13;11.70;99.90
17154;DHT22;8692;52.164;7.558;2024-02-15T02:16:41;11.70;99.90
17154;DHT22;8692;52.164;7.558;2024-02-15T02:19:09;11.70;99.90
17154;DHT22;8692;52.164;7.558;2024-02-15T02:21:38;11.70;99.90
17154;DHT22;8692;52.164;7.558;2024-02-15T02:24:13;11.70;99.90
17154;DHT22;8692;52.164;7.558;2024-02-15T02:26:43;11.70;99.90
17154;DHT22;8692;52.164;7.558;2024-02-15T02:29:11;11.70;99.90
17154;DHT22;8692;52.164;7.558;2024-02-15T02:31:39;11.70;99.90
17154;DHT22;8692;52.164;7.558;2024-02-15T02:34:09;11.70;99.90
17154;DHT22;8692;52.164;7.558;2024-02-15T02:36:38;11.70;99.90
17154;DHT22;8692;52.164;7.558;2024-02-15T02:39:07;11.70;99.90
17154;DHT22;8692;52.164;7.558;2024-02-15T02:41:35;11.70;99.90
17154;DHT22;8692;52.164;7.558;2024-02-15T02:44:05;11.70;99.90
17154;DHT22;8692;52.164;7.558;2024-02-15T02:46:33;11.70;99.90
17154;DHT22;8692;52.164;7.558;2024-02-15T02:49:02;11.70;99.90
17154;DHT22;8692;52.164;7.558;2024-02-15T02:51:30;11.70;99.90
17154;DHT22;8692;52.164;7.558;2024-02-15T02:53:58;11.70;99.90
17154;DHT22;8692;52.164;7.558;2024-02-15T02:56:27;11.70;99.90
17154;DHT22;8692;52.164;7.558;2024-02-15T02:58:55;11.70;99.90
17154;DHT22;8692;52.164;7.558;2024-02-15T03:01:24;11.70;99.90
17154;DHT22;8692;52.164;7.558;2024-02-15T03:03:53;11.70;99.90
17154;DHT22;8692;52.164;7.558;2024-02-15T03:06:22;11.70;99.90
17154;DHT22;8692;52.164;7.558;2024-02-15T03:08:52;11.70;99.90
17154;DHT22;8692;52.164;7.558;2024-02-15T03:11:21;11.70;99.90
17154;DHT22;8692;52.164;7.558;2024-02-15T03:13:49;11.70;99.90
17154;DHT22;8692;52.164;7.558;2024-02-15T03:16:17;11.70;99.90
17154;DHT22;8692;52.164;7.558;2024-02-15T03:18:51;11.70;99.90
17154;DHT22;8692;52.164;7.558;2024-02-15T03:21:19;11.70;99.90
17154;DHT22;8692;52.164;7.558;2024-02-15T03:23:48;11.70;99.90
17154;DHT22;8692;52.164;7.558;2024-02-15T03:26:16;11.70;99.90
17154;DHT22;8692;52.164;7.558;2024-02-15T03:28:44;11.70;99.90
17154;DHT22;8692;52.164;7.558;2024-02-15T03:31:12;11.70;99.90
17154;DHT22;8692;52.164;7.558;2024-02-15T03:33:41;11.70;99.90
17154;DHT22;8692;52.164;7.558;2024-02-15T03:36:11;11.70;99.90
17154;DHT22;8692;52.164;7.558;2024-02-15T03:38:43;11.70;99.90
17154;DHT22;8692;52.164;7.558;2024-02-15T03:41:11;11.70;99.90
17154;DHT22;8692;52.164;7.558;2024-02-15T03:43:40;11.70;99.90
17154;DHT22;8692;52.164;7.558;2024-02-15T03:46:08;11.70;99.90
17154;DHT22;8692;52.164;7.558;2024-02-15T03:48:40;11.70;99.90
17154;DHT22;8692;52.164;7.558;2024-02-15T03:51:08;11.70;99.90
17154;DHT22;8692;52.164;7.558;2024-02-15T03:53:38;11.70;99.90
17154;DHT22;8692;52.164;7.558;2024-02-15T03:56:06;11.70;99.90
17154;DHT22;8692;52.164;7.558;2024-02-15T03:58:35;11.70;99.90
17154;DHT22;8692;52.164;7.558;2024-02-15T04:01:04;11.70;99.90
17154;DHT22;8692;52.164;7.558;2024-02-15T04:03:33;11.70;99.90
17154;DHT22;8692;52.164;7.558;2024-02-15T04:06:02;11.70;99.90
17154;DHT22;8692;52.164;7.558;2024-02-15T04:08:31;11.70;99.90
17154;DHT22;8692;52.164;7.558;2024-02-15T04:11:01;11.70;99.90
17154;DHT22;8692;52.164;7.558;2024-02-15T04:13:29;11.70;99.90
17154;DHT22;8692;52.164;7.558;2024-02-15T04:15:57;11.70;99.90
17154;DHT22;8692;52.164;7.558;2024-02-15T04:18:25;11.70;99.90
17154;DHT22;8692;52.164;7.558;2024-02-15T04:20:54;11.70;99.90
17154;DHT22;8692;52.164;7.558;2024-02-15T04:23:22;11.70;99.90
17154;DHT22;8692;52.164;7.558;2024-02-15T04:25:50;11.70;99.90
17154;DHT22;8692;52.164;7.558;2024-02-15T04:28:20;11.70;99.90
17154;DHT22;8692;52.164;7.558;2024-02-15T04:30:48;11.70;99.90
17154;DHT22;8692;52.164;7.558;2024-02-15T04:33:16;11.70;99.90
17154;DHT22;8692;52.164;7.558;2024-02-15T04:35:44;11.70;99.90
17154;DHT22;8692;52.164;7.558;2024-02-15T04:38:13;11.70;99.90
17154;DHT22;8692;52.164;7.558;2024-02-15T04:40:41;11.70;99.90
17154;DHT22;8692;52.164;7.558;2024-02-15T04:43:09;11.70;99.90
17154;DHT22;8692;52.164;7.558;2024-02-15T04:45:38;11.70;99.90
17154;DHT22;8692;52.164;7.558;2024-02-15T04:48:06;11.70;99.90
17154;DHT22;8692;52.164;7.558;2024-02-15T04:50:35;11.70;99.90
17154;DHT22;8692;52.164;7.558;2024-02-15T04:53:04;11.70;99.90
17154;DHT22;8692;52.164;7.558;2024-02-15T04:55:33;11.70;99.90
17154;DHT22;8692;52.164;7.558;2024-02-15T04:58:02;11.70;99.90
17154;DHT22;8692;52.164;7.558;2024-02-15T05:00:31;11.60;99.90
17154;DHT22;8692;52.164;7.558;2024-02-15T05:03:00;11.60;99.90
17154;DHT22;8692;52.164;7.558;2024-02-15T05:05:29;11.70;99.90
17154;DHT22;8692;52.164;7.558;2024-02-15T05:07:57;11.70;99.90
17154;DHT22;8692;52.164;7.558;2024-02-15T05:10:28;11.70;99.90
17154;DHT22;8692;52.164;7.558;2024-02-15T05:12:56;11.60;99.90
17154;DHT22;8692;52.164;7.558;2024-02-15T05:15:27;11.60;99.90
17154;DHT22;8692;52.164;7.558;2024-02-15T05:17:55;11.60;99.90
17154;DHT22;8692;52.164;7.558;2024-02-15T05:20:25;11.60;99.90
17154;DHT22;8692;52.164;7.558;2024-02-15T05:22:53;11.60;99.90
17154;DHT22;8692;52.164;7.558;2024-02-15T05:25:21;11.60;99.90
17154;DHT22;8692;52.164;7.558;2024-02-15T05:27:53;11.60;99.90
17154;DHT22;8692;52.164;7.558;2024-02-15T05:30:23;11.60;99.90
17154;DHT22;8692;52.164;7.558;2024-02-15T05:32:51;11.60;99.90
17154;DHT22;8692;52.164;7.558;2024-02-15T05:35:21;11.60;99.90
17154;DHT22;8692;52.164;7.558;2024-02-15T05:37:51;11.60;99.90
17154;DHT22;8692;52.164;7.558;2024-02-15T05:40:20;11.60;99.90
17154;DHT22;8692;52.164;7.558;2024-02-15T05:42:48;11.60;99.90
17154;DHT22;8692;52.164;7.558;2024-02-15T05:45:30;11.60;99.90
17154;DHT22;8692;52.164;7.558;2024-02-15T05:48:00;11.50;99.90
17154;DHT22;8692;52.164;7.558;2024-02-15T05:50:28;11.50;99.90
17154;DHT22;8692;52.164;7.558;2024-02-15T05:52:59;11.50;99.90
17154;DHT22;8692;52.164;7.558;2024-02-15T05:55:28;11.50;99.90
17154;DHT22;8692;52.164;7.558;2024-02-15T05:58:02;11.50;99.90
17154;DHT22;8692;52.164;7.558;2024-02-15T06:00:30;11.50;99.90
17154;DHT22;8692;52.164;7.558;2024-02-15T06:02:58;11.50;99.90
17154;DHT22;8692;52.164;7.558;2024-02-15T06:05:29;11.40;99.90
17154;DHT22;8692;52.164;7.558;2024-02-15T06:07:58;11.50;99.90
17154;DHT22;8692;52.164;7.558;2024-02-15T06:10:26;11.40;99.90
17154;DHT22;8692;52.164;7.558;2024-02-15T06:12:56;11.40;99.90
17154;DHT22;8692;52.164;7.558;2024-02-15T06:15:25;11.50;99.90
17154;DHT22;8692;52.164;7.558;2024-02-15T06:17:53;11.40;99.90
17154;DHT22;8692;52.164;7.558;2024-02-15T06:20:21;11.40;99.90
17154;DHT22;8692;52.164;7.558;2024-02-15T06:22:50;11.40;99.90
17154;DHT22;8692;52.164;7.558;2024-02-15T06:25:20;11.40;99.90
17154;DHT22;8692;52.164;7.558;2024-02-15T06:27:49;11.40;99.90
17154;DHT22;8692;52.164;7.558;2024-02-15T06:30:24;11.40;99.90
17154;DHT22;8692;52.164;7.558;2024-02-15T06:33:10;11.40;99.90
17154;DHT22;8692;52.164;7.558;2024-02-15T06:35:56;11.40;99.90
17154;DHT22;8692;52.164;7.558;2024-02-15T06:38:41;11.40;99.90
17154;DHT22;8692;52.164;7.558;2024-02-15T06:41:28;11.40;99.90
17154;DHT22;8692;52.164;7.558;2024-02-15T06:43:56;11.40;99.90
17154;DHT22;8692;52.164;7.558;2024-02-15T06:46:24;11.40;99.90
17154;DHT22;8692;52.164;7.558;2024-02-15T06:48:52;11.40;99.90
17154;DHT22;8692;52.164;7.558;2024-02-15T06:51:21;11.40;99.90
17154;DHT22;8692;52.164;7.558;2024-02-15T06:53:51;11.40;99.90
17154;DHT22;8692;52.164;7.558;2024-02-15T06:56:22;11.40;99.90
17154;DHT22;8692;52.164;7.558;2024-02-15T06:58:52;11.40;99.90
17154;DHT22;8692;52.164;7.558;2024-02-15T07:01:23;11.40;99.90
17154;DHT22;8692;52.164;7.558;2024-02-15T07:03:51;11.50;99.90
17154;DHT22;8692;52.164;7.558;2024-02-15T07:06:23;11.50;99.90
17154;DHT22;8692;52.164;7.558;2024-02-15T07:08:51;11.50;99.90
17154;DHT22;8692;52.164;7.558;2024-02-15T07:11:20;11.40;99.90
17154;DHT22;8692;52.164;7.558;2024-02-15T07:13:49;11.50;99.90
17154;DHT22;8692;52.164;7.558;2024-02-15T07:16:21;11.50;99.90
17154;DHT22;8692;52.164;7.558;2024-02-15T07:18:49;11.40;99.90
17154;DHT22;8692;52.164;7.558;2024-02-15T07:21:17;11.40;99.90
17154;DHT22;8692;52.164;7.558;2024-02-15T07:23:48;11.40;99.90
17154;DHT22;8692;52.164;7.558;2024-02-15T07:26:16;11.40;99.90
17154;DHT22;8692;52.164;7.558;2024-02-15T07:28:46;11.40;99.90
17154;DHT22;8692;52.164;7.558;2024-02-15T07:31:14;11.40;99.90
17154;DHT22;8692;52.164;7.558;2024-02-15T07:33:44;11.50;99.90
17154;DHT22;8692;52.164;7.558;2024-02-15T07:36:12;11.50;99.90
17154;DHT22;8692;52.164;7.558;2024-02-15T07:38:40;11.40;99.90
17154;DHT22;8692;52.164;7.558;2024-02-15T07:41:08;11.50;99.90
17154;DHT22;8692;52.164;7.558;2024-02-15T07:43:36;11.50;99.90
17154;DHT22;8692;52.164;7.558;2024-02-15T07:46:04;11.50;99.90
17154;DHT22;8692;52.164;7.558;2024-02-15T07:48:32;11.50;99.90
17154;DHT22;8692;52.164;7.558;2024-02-15T07:51:02;11.50;99.90
17154;DHT22;8692;52.164;7.558;2024-02-15T07:53:30;11.50;99.90
17154;DHT22;8692;52.164;7.558;2024-02-15T07:55:58;11.50;99.90
17154;DHT22;8692;52.164;7.558;2024-02-15T07:58:26;11.50;99.90
17154;DHT22;8692;52.164;7.558;2024-02-15T08:00:54;11.50;99.90
17154;DHT22;8692;52.164;7.558;2024-02-15T08:03:23;11.50;99.90
17154;DHT22;8692;52.164;7.558;2024-02-15T08:05:51;11.50;99.90
17154;DHT22;8692;52.164;7.558;2024-02-15T08:08:21;11.50;99.90
17154;DHT22;8692;52.164;7.558;2024-02-15T08:10:49;11.60;99.90
17154;DHT22;8692;52.164;7.558;2024-02-15T08:13:18;11.50;99.90
17154;DHT22;8692;52.164;7.558;2024-02-15T08:15:49;11.50;99.90
17154;DHT22;8692;52.164;7.558;2024-02-15T08:18:19;11.50;99.90
17154;DHT22;8692;52.164;7.558;2024-02-15T08:20:47;11.60;99.90
17154;DHT22;8692;52.164;7.558;2024-02-15T08:23:15;11.50;99.90
17154;DHT22;8692;52.164;7.558;2024-02-15T08:25:45;11.50;99.90
17154;DHT22;8692;52.164;7.558;2024-02-15T08:28:13;11.60;99.90
17154;DHT22;8692;52.164;7.558;2024-02-15T08:30:41;11.60;99.90
17154;DHT22;8692;52.164;7.558;2024-02-15T08:33:09;11.60;99.90
17154;DHT22;8692;52.164;7.558;2024-02-15T08:35:38;11.60;99.90
17154;DHT22;8692;52.164;7.558;2024-02-15T08:38:08;11.60;99.90
17154;DHT22;8692;52.164;7.558;2024-02-15T08:40:36;11.60;99.90
17154;DHT22;8692;52.164;7.558;2024-02-15T08:43:05;11.60;99.90
17154;DHT22;8692;52.164;7.558;2024-02-15T08:45:33;11.60;99.90
17154;DHT22;8692;52.164;7.558;2024-02-15T08:48:02;11.60;99.90
17154;DHT22;8692;52.164;7.558;2024-02-15T08:50:31;11.60;99.90
17154;DHT22;8692;52.164;7.558;2024-02-15T08:52:59;11.60;99.90
17154;DHT22;8692;52.164;7.558;2024-02-15T08:55:28;11.60;99.90
17154;DHT22;8692;52.164;7.558;2024-02-15T08:57:56;11.60;99.90
17154;DHT22;8692;52.164;7.558;2024-02-15T09:00:25;11.70;99.90
17154;DHT22;8692;52.164;7.558;2024-02-15T09:02:54;11.70;99.90
17154;DHT22;8692;52.164;7.558;2024-02-15T09:05:24;11.70;99.90
17154;DHT22;8692;52.164;7.558;2024-02-15T09:07:53;11.70;99.90
17154;DHT22;8692;52.164;7.558;2024-02-15T09:10:21;11.70;99.90
17154;DHT22;8692;52.164;7.558;2024-02-15T09:12:50;11.70;99.90
17154;DHT22;8692;52.164;7.558;2024-02-15T09:15:18;11.70;99.90
17154;DHT22;8692;52.164;7.558;2024-02-15T09:17:48;11.70;99.90
17154;DHT22;8692;52.164;7.558;2024-02-15T09:20:17;11.70;99.90
17154;DHT22;8692;52.164;7.558;2024-02-15T09:22:48;11.70;99.90
17154;DHT22;8692;52.164;7.558;2024-02-15T09:25:16;11.70;99.90
17154;DHT22;8692;52.164;7.558;2024-02-15T09:27:45;11.70;99.90
17154;DHT22;8692;52.164;7.558;2024-02-15T09:30:14;11.70;99.90
17154;DHT22;8692;52.164;7.558;2024-02-15T09:32:44;11.70;99.90
17154;DHT22;8692;52.164;7.558;2024-02-15T09:35:14;11.70;99.90
17154;DHT22;8692;52.164;7.558;2024-02-15T09:37:46;11.70;99.90
17154;DHT22;8692;52.164;7.558;2024-02-15T09:40:17;11.70;99.90
17154;DHT22;8692;52.164;7.558;2024-02-15T09:42:47;11.70;99.90
17154;DHT22;8692;52.164;7.558;2024-02-15T09:45:15;11.70;99.90
17154;DHT22;8692;52.164;7.558;2024-02-15T09:47:45;11.70;99.90
17154;DHT22;8692;52.164;7.558;2024-02-15T09:50:16;11.70;99.90
17154;DHT22;8692;52.164;7.558;2024-02-15T09:52:45;11.70;99.90
17154;DHT22;8692;52.164;7.558;2024-02-15T09:55:14;11.70;99.90
17154;DHT22;8692;52.164;7.558;2024-02-15T09:57:43;11.70;99.90
17154;DHT22;8692;52.164;7.558;2024-02-15T10:00:13;11.70;99.90
17154;DHT22;8692;52.164;7.558;2024-02-15T10:02:44;11.70;99.90
17154;DHT22;8692;52.164;7.558;2024-02-15T10:05:14;11.70;99.90
17154;DHT22;8692;52.164;7.558;2024-02-15T10:07:43;11.70;99.90
17154;DHT22;8692;52.164;7.558;2024-02-15T10:10:16;11.70;99.90
17154;DHT22;8692;52.164;7.558;2024-02-15T10:12:45;11.70;99.90
17154;DHT22;8692;52.164;7.558;2024-02-15T10:15:29;11.70;99.90
17154;DHT22;8692;52.164;7.558;2024-02-15T10:18:01;11.70;99.90
17154;DHT22;8692;52.164;7.558;2024-02-15T10:20:31;11.70;99.90
17154;DHT22;8692;52.164;7.558;2024-02-15T10:23:11;11.70;99.90
17154;DHT22;8692;52.164;7.558;2024-02-15T10:25:40;11.70;99.90
17154;DHT22;8692;52.164;7.558;2024-02-15T10:28:09;11.70;99.90
17154;DHT22;8692;52.164;7.558;2024-02-15T10:30:39;11.70;99.90
17154;DHT22;8692;52.164;7.558;2024-02-15T10:33:10;11.70;99.90
17154;DHT22;8692;52.164;7.558;2024-02-15T10:35:47;11.70;99.90
17154;DHT22;8692;52.164;7.558;2024-02-15T10:38:15;11.70;99.90
17154;DHT22;8692;52.164;7.558;2024-02-15T10:40:46;11.70;99.90
17154;DHT22;8692;52.164;7.558;2024-02-15T10:43:16;11.70;99.90
17154;DHT22;8692;52.164;7.558;2024-02-15T10:45:45;11.70;99.90
17154;DHT22;8692;52.164;7.558;2024-02-15T10:48:16;11.70;99.90
17154;DHT22;8692;52.164;7.558;2024-02-15T10:50:47;11.70;99.90
17154;DHT22;8692;52.164;7.558;2024-02-15T10:53:21;11.70;99.90
17154;DHT22;8692;52.164;7.558;2024-02-15T10:55:56;11.80;99.90
17154;DHT22;8692;52.164;7.558;2024-02-15T10:58:30;11.80;99.90
17154;DHT22;8692;52.164;7.558;2024-02-15T11:01:03;11.80;99.90
17154;DHT22;8692;52.164;7.558;2024-02-15T11:03:36;11.80;99.90
17154;DHT22;8692;52.164;7.558;2024-02-15T11:06:11;11.80;99.90
17154;DHT22;8692;52.164;7.558;2024-02-15T11:08:40;11.80;99.90
17154;DHT22;8692;52.164;7.558;2024-02-15T11:11:10;11.90;99.90
17154;DHT22;8692;52.164;7.558;2024-02-15T11:13:41;11.80;99.90
17154;DHT22;8692;52.164;7.558;2024-02-15T11:16:09;11.90;99.90
17154;DHT22;8692;52.164;7.558;2024-02-15T11:18:43;11.90;99.90
17154;DHT22;8692;52.164;7.558;2024-02-15T11:21:14;11.90;99.90
17154;DHT22;8692;52.164;7.558;2024-02-15T11:23:43;11.90;99.90
17154;DHT22;8692;52.164;7.558;2024-02-15T11:26:44;12.00;99.90
17154;DHT22;8692;52.164;7.558;2024-02-15T11:29:49;12.00;99.90
17154;DHT22;8692;52.164;7.558;2024-02-15T11:32:35;12.00;99.90
17154;DHT22;8692;52.164;7.558;2024-02-15T11:35:06;12.00;99.90
17154;DHT22;8692;52.164;7.558;2024-02-15T11:38:07;12.00;99.90
17154;DHT22;8692;52.164;7.558;2024-02-15T11:41:00;12.10;99.90
17154;DHT22;8692;52.164;7.558;2024-02-15T11:43:53;12.10;99.90
17154;DHT22;8692;52.164;7.558;2024-02-15T11:46:26;12.10;99.90
17154;DHT22;8692;52.164;7.558;2024-02-15T11:48:58;12.10;99.90
17154;DHT22;8692;52.164;7.558;2024-02-15T11:51:32;12.10;99.90
17154;DHT22;8692;52.164;7.558;2024-02-15T11:54:07;12.20;99.90
17154;DHT22;8692;52.164;7.558;2024-02-15T11:56:51;12.20;99.90
17154;DHT22;8692;52.164;7.558;2024-02-15T11:59:21;12.30;99.90
17154;DHT22;8692;52.164;7.558;2024-02-15T12:01:59;12.30;99.90
17154;DHT22;8692;52.164;7.558;2024-02-15T12:04:46;12.30;99.90
17154;DHT22;8692;52.164;7.558;2024-02-15T12:07:32;12.40;99.90
17154;DHT22;8692;52.164;7.558;2024-02-15T12:10:20;12.40;99.90
17154;DHT22;8692;52.164;7.558;2024-02-15T12:13:06;12.40;99.90
17154;DHT22;8692;52.164;7.558;2024-02-15T12:16:00;12.40;99.90
17154;DHT22;8692;52.164;7.558;2024-02-15T12:18:45;12.40;99.90
17154;DHT22;8692;52.164;7.558;2024-02-15T12:21:21;12.40;99.90
17154;DHT22;8692;52.164;7.558;2024-02-15T12:23:50;12.40;99.90
17154;DHT22;8692;52.164;7.558;2024-02-15T12:26:21;12.40;99.90
17154;DHT22;8692;52.164;7.558;2024-02-15T12:28:51;12.50;99.90
17154;DHT22;8692;52.164;7.558;2024-02-15T12:31:21;12.50;99.90
17154;DHT22;8692;52.164;7.558;2024-02-15T12:34:00;12.60;99.90
17154;DHT22;8692;52.164;7.558;2024-02-15T12:36:29;12.60;99.90
17154;DHT22;8692;52.164;7.558;2024-02-15T12:39:00;12.60;99.90
17154;DHT22;8692;52.164;7.558;2024-02-15T12:41:30;12.70;99.90
17154;DHT22;8692;52.164;7.558;2024-02-15T12:43:58;12.70;99.90
17154;DHT22;8692;52.164;7.558;2024-02-15T12:46:28;12.80;99.90
17154;DHT22;8692;52.164;7.558;2024-02-15T12:49:10;12.80;99.90
17154;DHT22;8692;52.164;7.558;2024-02-15T12:51:50;12.90;99.90
17154;DHT22;8692;52.164;7.558;2024-02-15T12:54:19;12.90;99.90
17154;DHT22;8692;52.164;7.558;2024-02-15T12:56:50;13.00;99.90
17154;DHT22;8692;52.164;7.558;2024-02-15T12:59:19;13.00;99.90
17154;DHT22;8692;52.164;7.558;2024-02-15T13:01:47;13.00;99.90
17154;DHT22;8692;52.164;7.558;2024-02-15T13:04:23;13.10;99.90
17154;DHT22;8692;52.164;7.558;2024-02-15T13:06:51;13.10;99.90
17154;DHT22;8692;52.164;7.558;2024-02-15T13:09:20;13.10;99.90
17154;DHT22;8692;52.164;7.558;2024-02-15T13:11:51;13.20;99.90
17154;DHT22;8692;52.164;7.558;2024-02-15T13:14:20;13.20;99.90
17154;DHT22;8692;52.164;7.558;2024-02-15T13:16:49;13.20;99.90
17154;DHT22;8692;52.164;7.558;2024-02-15T13:19:16;13.30;99.90
17154;DHT22;8692;52.164;7.558;2024-02-15T13:21:45;13.30;99.90
17154;DHT22;8692;52.164;7.558;2024-02-15T13:24:19;13.30;99.90
17154;DHT22;8692;52.164;7.558;2024-02-15T13:26:54;13.30;99.90
17154;DHT22;8692;52.164;7.558;2024-02-15T13:29:25;13.30;99.90
17154;DHT22;8692;52.164;7.558;2024-02-15T13:31:53;13.30;99.90
17154;DHT22;8692;52.164;7.558;2024-02-15T13:34:21;13.30;99.90
17154;DHT22;8692;52.164;7.558;2024-02-15T13:36:50;13.40;99.90
17154;DHT22;8692;52.164;7.558;2024-02-15T13:39:17;13.40;99.90
17154;DHT22;8692;52.164;7.558;2024-02-15T13:41:48;13.40;99.90
17154;DHT22;8692;52.164;7.558;2024-02-15T13:44:17;13.50;99.90
17154;DHT22;8692;52.164;7.558;2024-02-15T13:46:46;13.50;99.90
17154;DHT22;8692;52.164;7.558;2024-02-15T13:49:16;13.50;99.90
17154;DHT22;8692;52.164;7.558;2024-02-15T13:51:58;13.50;99.90
17154;DHT22;8692;52.164;7.558;2024-02-15T13:54:30;13.60;99.90
17154;DHT22;8692;52.164;7.558;2024-02-15T13:56:58;13.60;99.90
17154;DHT22;8692;52.164;7.558;2024-02-15T13:59:28;13.60;99.90
17154;DHT22;8692;52.164;7.558;2024-02-15T14:01:56;13.60;99.90
17154;DHT22;8692;52.164;7.558;2024-02-15T14:04:24;13.60;99.90
17154;DHT22;8692;52.164;7.558;2024-02-15T14:06:53;13.70;99.90
17154;DHT22;8692;52.164;7.558;2024-02-15T14:09:23;13.70;99.90
17154;DHT22;8692;52.164;7.558;2024-02-15T14:11:53;13.70;99.90
17154;DHT22;8692;52.164;7.558;2024-02-15T14:14:21;13.70;99.90
17154;DHT22;8692;52.164;7.558;2024-02-15T14:16:51;13.70;99.90
17154;DHT22;8692;52.164;7.558;2024-02-15T14:19:19;13.70;99.90
17154;DHT22;8692;52.164;7.558;2024-02-15T14:21:48;13.70;99.90
17154;DHT22;8692;52.164;7.558;2024-02-15T14:24:16;13.80;99.90
17154;DHT22;8692;52.164;7.558;2024-02-15T14:26:45;13.80;99.90
17154;DHT22;8692;52.164;7.558;2024-02-15T14:29:13;13.80;99.90
17154;DHT22;8692;52.164;7.558;2024-02-15T14:31:43;13.80;99.90
17154;DHT22;8692;52.164;7.558;2024-02-15T14:34:29;13.80;99.90
17154;DHT22;8692;52.164;7.558;2024-02-15T14:36:57;13.80;99.90
17154;DHT22;8692;52.164;7.558;2024-02-15T14:39:26;13.80;99.90
17154;DHT22;8692;52.164;7.558;2024-02-15T14:41:54;13.80;99.90
17154;DHT22;8692;52.164;7.558;2024-02-15T14:44:22;13.80;99.90
17154;DHT22;8692;52.164;7.558;2024-02-15T14:46:51;13.80;99.90
17154;DHT22;8692;52.164;7.558;2024-02-15T14:49:20;13.80;99.90
17154;DHT22;8692;52.164;7.558;2024-02-15T14:51:50;13.80;99.90
17154;DHT22;8692;52.164;7.558;2024-02-15T14:54:18;13.80;99.90
17154;DHT22;8692;52.164;7.558;2024-02-15T14:56:50;13.80;99.90
17154;DHT22;8692;52.164;7.558;2024-02-15T14:59:18;13.80;99.90
17154;DHT22;8692;52.164;7.558;2024-02-15T15:01:45;13.70;99.90
17154;DHT22;8692;52.164;7.558;2024-02-15T15:04:13;13.80;99.90
17154;DHT22;8692;52.164;7.558;2024-02-15T15:06:44;13.70;99.90
17154;DHT22;8692;52.164;7.558;2024-02-15T15:09:31;13.70;99.90
17154;DHT22;8692;52.164;7.558;2024-02-15T15:12:25;13.70;99.90
17154;DHT22;8692;52.164;7.558;2024-02-15T15:15:06;13.70;99.90
17154;DHT22;8692;52.164;7.558;2024-02-15T15:17:35;13.70;99.90
17154;DHT22;8692;52.164;7.558;2024-02-15T15:20:06;13.70;99.90
17154;DHT22;8692;52.164;7.558;2024-02-15T15:22:36;13.70;99.90
17154;DHT22;8692;52.164;7.558;2024-02-15T15:25:06;13.70;99.90
17154;DHT22;8692;52.164;7.558;2024-02-15T15:27:36;13.70;99.90
17154;DHT22;8692;52.164;7.558;2024-02-15T15:30:05;13.70;99.90
17154;DHT22;8692;52.164;7.558;2024-02-15T15:32:33;13.70;99.90
17154;DHT22;8692;52.164;7.558;2024-02-15T15:35:02;13.60;99.90
17154;DHT22;8692;52.164;7.558;2024-02-15T15:37:30;13.60;99.90
17154;DHT22;8692;52.164;7.558;2024-02-15T15:39:59;13.60;99.90
17154;DHT22;8692;52.164;7.558;2024-02-15T15:42:28;13.60;99.90
17154;DHT22;8692;52.164;7.558;2024-02-15T15:44:56;13.60;99.90
17154;DHT22;8692;52.164;7.558;2024-02-15T15:47:24;13.60;99.90
17154;DHT22;8692;52.164;7.558;2024-02-15T15:49:52;13.60;99.90
17154;DHT22;8692;52.164;7.558;2024-02-15T15:52:25;13.60;99.90
17154;DHT22;8692;52.164;7.558;2024-02-15T15:54:53;13.50;99.90
17154;DHT22;8692;52.164;7.558;2024-02-15T15:57:21;13.50;99.90
17154;DHT22;8692;52.164;7.558;2024-02-15T15:59:53;13.50;99.90
17154;DHT22;8692;52.164;7.558;2024-02-15T16:02:21;13.50;99.90
17154;DHT22;8692;52.164;7.558;2024-02-15T16:04:49;13.50;99.90